LIPSLIPL

Guest
Details From LIPS - Istrana
To LIPL - Ghedi
Flight Number -
Tags Generated
Created
Modified
Stats Distance 78 nm / 144 km
Max Altitude 0 ft / 0 m
Waypoints 2
Social Downloads 0
Likes 0
Share VATSIM

Download

Looking for another format? Having issues loading an existing format? Contact us
Advertisement - Login to hide

Notes

Generated

Route

LIPS LIPL

ID Type Via Altitude Latitude Longitude Leg Dist Tot Dist Heading (true) Name
O LIPS APT - 0 ft / 0 m 45.68257˚ 12.06821˚ - 0 nm - -
O LIPL APT - 0 ft / 0 m 45.44165˚ 10.25421˚ 77 nm 77 nm 260° / 259° -

Altitude Profile

Advertisement - Login to hide

LIPS

Details ICAO LIPS
Name Istrana
Region Italy
Timezone Europe/Rome (UTC+2.0)
Stats Elevation 137 ft / 42 m (AMSL)
Location 45.684441° 12.087231°
Runways 1
Magnetic Variation 3.181° E

METAR

LIPS 251555Z 16004KT 9999 FEW030 SCT090 30/16 Q1014 RMK SCT VIS MIN 9999 WIND THR26 /////KT WIND THR08 20002KT BLU

Decode

TAF

Not found

Departure Runways

ID Width Length Bearing (true) Bearing (mag) Surface Threshold Offset Overrun Length
08 105 ft / 32 m 9,791 ft / 2,984 m 81.97° 78.79° Asphalt 956 ft / 291 m 0 ft / 0 m
26 105 ft / 32 m 9,791 ft / 2,984 m 262.00° 258.82° Asphalt 953 ft / 290 m 0 ft / 0 m

LIPL

Details ICAO LIPL
Name GHEDI
Region Italy
Timezone Europe/Rome (UTC+2.0)
Stats Elevation 333 ft / 101 m (AMSL)
Location 45.432167° 10.267667°
Runways 1
Magnetic Variation 2.775° E

METAR

LIPL 251555Z 21002KT CAVOK 28/09 Q1014 RMK SCT FEW100 VIS MIN 9999 WIND THR31 23003KT WIND THR13 20003KT BLU

Decode

TAF

Not found

Destination Runways

ID Width Length Bearing (true) Bearing (mag) Surface Threshold Offset Overrun Length
13 148 ft / 45 m 9,767 ft / 2,977 m 135.09° 132.31° Asphalt 812 ft / 248 m 0 ft / 0 m
31 148 ft / 45 m 9,767 ft / 2,977 m 315.11° 312.33° Asphalt 812 ft / 248 m 0 ft / 0 m